sensor_id;sensor_type;location;lat;lon;timestamp;P1;durP1;ratioP1;P2;durP2;ratioP2
32912;SDS011;19266;45.580;-122.680;2022-07-23T00:01:26;1.30;;;0.60;;
32912;SDS011;19266;45.580;-122.680;2022-07-23T00:03:56;1.00;;;0.80;;
32912;SDS011;19266;45.580;-122.680;2022-07-23T00:06:25;0.60;;;0.60;;
32912;SDS011;19266;45.580;-122.680;2022-07-23T00:08:54;0.85;;;0.80;;
32912;SDS011;19266;45.580;-122.680;2022-07-23T00:11:23;1.05;;;0.75;;
32912;SDS011;19266;45.580;-122.680;2022-07-23T00:13:52;1.90;;;0.70;;
32912;SDS011;19266;45.580;-122.680;2022-07-23T00:16:22;1.07;;;0.68;;
32912;SDS011;19266;45.580;-122.680;2022-07-23T00:18:51;6.75;;;1.10;;
32912;SDS011;19266;45.580;-122.680;2022-07-23T00:21:21;1.02;;;0.90;;
32912;SDS011;19266;45.580;-122.680;2022-07-23T00:23:50;1.47;;;0.85;;
32912;SDS011;19266;45.580;-122.680;2022-07-23T00:26:19;1.85;;;1.00;;
32912;SDS011;19266;45.580;-122.680;2022-07-23T00:28:48;1.42;;;1.00;;
32912;SDS011;19266;45.580;-122.680;2022-07-23T00:31:17;5.83;;;1.32;;
32912;SDS011;19266;45.580;-122.680;2022-07-23T00:33:46;1.72;;;1.00;;
32912;SDS011;19266;45.580;-122.680;2022-07-23T00:36:15;1.50;;;1.20;;
32912;SDS011;19266;45.580;-122.680;2022-07-23T00:38:44;2.45;;;1.30;;
32912;SDS011;19266;45.580;-122.680;2022-07-23T00:41:13;1.50;;;1.40;;
32912;SDS011;19266;45.580;-122.680;2022-07-23T00:43:43;8.83;;;1.50;;
32912;SDS011;19266;45.580;-122.680;2022-07-23T00:46:12;2.30;;;1.42;;
32912;SDS011;19266;45.580;-122.680;2022-07-23T00:48:41;5.95;;;1.47;;
32912;SDS011;19266;45.580;-122.680;2022-07-23T00:51:10;2.12;;;1.25;;
32912;SDS011;19266;45.580;-122.680;2022-07-23T00:53:39;1.92;;;1.30;;
32912;SDS011;19266;45.580;-122.680;2022-07-23T00:56:08;2.90;;;1.30;;
32912;SDS011;19266;45.580;-122.680;2022-07-23T00:58:37;3.42;;;1.17;;
32912;SDS011;19266;45.580;-122.680;2022-07-23T01:01:07;1.45;;;1.20;;
32912;SDS011;19266;45.580;-122.680;2022-07-23T01:03:37;1.52;;;1.10;;
32912;SDS011;19266;45.580;-122.680;2022-07-23T01:06:06;2.20;;;1.10;;
32912;SDS011;19266;45.580;-122.680;2022-07-23T01:08:35;1.82;;;1.00;;
32912;SDS011;19266;45.580;-122.680;2022-07-23T01:11:04;2.83;;;1.42;;
32912;SDS011;19266;45.580;-122.680;2022-07-23T01:13:34;1.70;;;1.27;;
32912;SDS011;19266;45.580;-122.680;2022-07-23T01:16:03;2.12;;;1.27;;
32912;SDS011;19266;45.580;-122.680;2022-07-23T01:18:32;1.15;;;1.07;;
32912;SDS011;19266;45.580;-122.680;2022-07-23T01:21:01;6.53;;;1.35;;
32912;SDS011;19266;45.580;-122.680;2022-07-23T01:23:30;2.33;;;1.20;;
32912;SDS011;19266;45.580;-122.680;2022-07-23T01:25:59;3.55;;;1.15;;
32912;SDS011;19266;45.580;-122.680;2022-07-23T01:28:28;5.60;;;1.40;;
32912;SDS011;19266;45.580;-122.680;2022-07-23T01:30:57;1.75;;;1.30;;
32912;SDS011;19266;45.580;-122.680;2022-07-23T01:33:26;15.53;;;2.00;;
32912;SDS011;19266;45.580;-122.680;2022-07-23T01:35:56;2.52;;;1.52;;
32912;SDS011;19266;45.580;-122.680;2022-07-23T01:38:25;4.65;;;1.30;;
32912;SDS011;19266;45.580;-122.680;2022-07-23T01:40:54;1.55;;;1.30;;
32912;SDS011;19266;45.580;-122.680;2022-07-23T01:43:23;1.40;;;1.30;;
32912;SDS011;19266;45.580;-122.680;2022-07-23T01:45:52;27.35;;;3.35;;
32912;SDS011;19266;45.580;-122.680;2022-07-23T01:48:21;5.00;;;1.60;;
32912;SDS011;19266;45.580;-122.680;2022-07-23T01:50:50;1.82;;;1.47;;
32912;SDS011;19266;45.580;-122.680;2022-07-23T01:53:19;1.87;;;1.32;;
32912;SDS011;19266;45.580;-122.680;2022-07-23T01:55:49;3.15;;;1.60;;
32912;SDS011;19266;45.580;-122.680;2022-07-23T01:58:18;1.45;;;1.35;;
32912;SDS011;19266;45.580;-122.680;2022-07-23T02:00:47;2.10;;;1.60;;
32912;SDS011;19266;45.580;-122.680;2022-07-23T02:03:16;1.82;;;1.35;;
32912;SDS011;19266;45.580;-122.680;2022-07-23T02:05:45;3.85;;;1.35;;
32912;SDS011;19266;45.580;-122.680;2022-07-23T02:08:14;7.92;;;1.80;;
32912;SDS011;19266;45.580;-122.680;2022-07-23T02:10:43;3.20;;;1.55;;
32912;SDS011;19266;45.580;-122.680;2022-07-23T02:13:13;2.45;;;1.50;;
32912;SDS011;19266;45.580;-122.680;2022-07-23T02:15:42;8.90;;;1.70;;
32912;SDS011;19266;45.580;-122.680;2022-07-23T02:18:11;3.35;;;1.50;;
32912;SDS011;19266;45.580;-122.680;2022-07-23T02:20:41;3.77;;;1.60;;
32912;SDS011;19266;45.580;-122.680;2022-07-23T02:23:10;14.43;;;2.12;;
32912;SDS011;19266;45.580;-122.680;2022-07-23T02:25:39;5.70;;;1.50;;
32912;SDS011;19266;45.580;-122.680;2022-07-23T02:28:08;3.92;;;1.70;;
32912;SDS011;19266;45.580;-122.680;2022-07-23T02:30:37;2.20;;;1.77;;
32912;SDS011;19266;45.580;-122.680;2022-07-23T02:33:07;2.35;;;1.60;;
32912;SDS011;19266;45.580;-122.680;2022-07-23T02:35:36;5.35;;;1.90;;
32912;SDS011;19266;45.580;-122.680;2022-07-23T02:38:05;3.37;;;1.80;;
32912;SDS011;19266;45.580;-122.680;2022-07-23T02:40:34;4.05;;;2.10;;
32912;SDS011;19266;45.580;-122.680;2022-07-23T02:43:03;2.30;;;2.00;;
32912;SDS011;19266;45.580;-122.680;2022-07-23T02:45:32;3.67;;;2.02;;
32912;SDS011;19266;45.580;-122.680;2022-07-23T02:48:02;3.92;;;2.55;;
32912;SDS011;19266;45.580;-122.680;2022-07-23T02:50:31;4.00;;;2.33;;
32912;SDS011;19266;45.580;-122.680;2022-07-23T02:53:00;3.40;;;2.47;;
32912;SDS011;19266;45.580;-122.680;2022-07-23T02:55:29;2.45;;;1.70;;
32912;SDS011;19266;45.580;-122.680;2022-07-23T02:57:58;2.83;;;1.85;;
32912;SDS011;19266;45.580;-122.680;2022-07-23T03:00:27;2.87;;;2.10;;
32912;SDS011;19266;45.580;-122.680;2022-07-23T03:02:57;2.83;;;2.10;;
32912;SDS011;19266;45.580;-122.680;2022-07-23T03:05:26;2.30;;;2.10;;
32912;SDS011;19266;45.580;-122.680;2022-07-23T03:07:55;5.83;;;2.02;;
32912;SDS011;19266;45.580;-122.680;2022-07-23T03:10:24;4.42;;;2.00;;
32912;SDS011;19266;45.580;-122.680;2022-07-23T03:12:53;2.20;;;2.00;;
32912;SDS011;19266;45.580;-122.680;2022-07-23T03:15:22;2.83;;;2.50;;
32912;SDS011;19266;45.580;-122.680;2022-07-23T03:17:51;2.10;;;1.90;;
32912;SDS011;19266;45.580;-122.680;2022-07-23T03:20:20;2.50;;;1.90;;
32912;SDS011;19266;45.580;-122.680;2022-07-23T03:22:49;22.42;;;3.17;;
32912;SDS011;19266;45.580;-122.680;2022-07-23T03:25:18;4.45;;;1.80;;
32912;SDS011;19266;45.580;-122.680;2022-07-23T03:27:48;2.20;;;2.00;;
32912;SDS011;19266;45.580;-122.680;2022-07-23T03:30:17;3.77;;;2.00;;
32912;SDS011;19266;45.580;-122.680;2022-07-23T03:32:46;2.72;;;1.90;;
32912;SDS011;19266;45.580;-122.680;2022-07-23T03:35:15;2.50;;;1.85;;
32912;SDS011;19266;45.580;-122.680;2022-07-23T03:37:44;3.02;;;2.37;;
32912;SDS011;19266;45.580;-122.680;2022-07-23T03:40:13;2.27;;;2.10;;
32912;SDS011;19266;45.580;-122.680;2022-07-23T03:42:42;2.80;;;2.30;;
32912;SDS011;19266;45.580;-122.680;2022-07-23T03:45:13;3.58;;;2.20;;
32912;SDS011;19266;45.580;-122.680;2022-07-23T03:47:42;3.62;;;2.00;;
32912;SDS011;19266;45.580;-122.680;2022-07-23T03:50:12;6.87;;;2.20;;
32912;SDS011;19266;45.580;-122.680;2022-07-23T03:52:41;3.25;;;2.15;;
32912;SDS011;19266;45.580;-122.680;2022-07-23T03:55:10;3.47;;;2.10;;
32912;SDS011;19266;45.580;-122.680;2022-07-23T03:57:39;3.72;;;2.10;;
32912;SDS011;19266;45.580;-122.680;2022-07-23T04:00:09;3.67;;;2.05;;
32912;SDS011;19266;45.580;-122.680;2022-07-23T04:02:38;2.30;;;2.10;;
32912;SDS011;19266;45.580;-122.680;2022-07-23T04:05:07;2.00;;;1.87;;
32912;SDS011;19266;45.580;-122.680;2022-07-23T04:07:37;3.87;;;2.00;;
32912;SDS011;19266;45.580;-122.680;2022-07-23T04:10:06;2.27;;;1.80;;
32912;SDS011;19266;45.580;-122.680;2022-07-23T04:12:37;3.15;;;2.00;;
32912;SDS011;19266;45.580;-122.680;2022-07-23T04:15:07;2.10;;;1.90;;
32912;SDS011;19266;45.580;-122.680;2022-07-23T04:17:37;6.97;;;2.27;;
32912;SDS011;19266;45.580;-122.680;2022-07-23T04:20:06;5.10;;;2.08;;
32912;SDS011;19266;45.580;-122.680;2022-07-23T04:22:35;6.53;;;2.30;;
32912;SDS011;19266;45.580;-122.680;2022-07-23T04:25:04;2.95;;;2.27;;
32912;SDS011;19266;45.580;-122.680;2022-07-23T04:27:33;5.92;;;2.55;;
32912;SDS011;19266;45.580;-122.680;2022-07-23T04:30:03;6.03;;;2.10;;
32912;SDS011;19266;45.580;-122.680;2022-07-23T04:32:32;4.25;;;2.10;;
32912;SDS011;19266;45.580;-122.680;2022-07-23T04:35:01;4.95;;;2.60;;
32912;SDS011;19266;45.580;-122.680;2022-07-23T04:37:30;16.27;;;3.12;;
32912;SDS011;19266;45.580;-122.680;2022-07-23T04:39:59;4.05;;;2.30;;
32912;SDS011;19266;45.580;-122.680;2022-07-23T04:42:28;3.15;;;1.92;;
32912;SDS011;19266;45.580;-122.680;2022-07-23T04:44:57;2.50;;;2.30;;
32912;SDS011;19266;45.580;-122.680;2022-07-23T04:47:27;3.12;;;2.15;;
32912;SDS011;19266;45.580;-122.680;2022-07-23T04:49:56;2.17;;;2.00;;
32912;SDS011;19266;45.580;-122.680;2022-07-23T04:52:25;6.45;;;2.17;;
32912;SDS011;19266;45.580;-122.680;2022-07-23T04:54:54;3.80;;;2.10;;
32912;SDS011;19266;45.580;-122.680;2022-07-23T04:57:23;2.35;;;1.75;;
32912;SDS011;19266;45.580;-122.680;2022-07-23T04:59:52;2.62;;;1.92;;
32912;SDS011;19266;45.580;-122.680;2022-07-23T05:02:21;2.27;;;1.87;;
32912;SDS011;19266;45.580;-122.680;2022-07-23T05:04:51;2.25;;;1.60;;
32912;SDS011;19266;45.580;-122.680;2022-07-23T05:07:20;2.67;;;1.70;;
32912;SDS011;19266;45.580;-122.680;2022-07-23T05:09:49;3.27;;;2.00;;
32912;SDS011;19266;45.580;-122.680;2022-07-23T05:12:18;1.98;;;1.77;;
32912;SDS011;19266;45.580;-122.680;2022-07-23T05:14:47;2.10;;;1.90;;
32912;SDS011;19266;45.580;-122.680;2022-07-23T05:17:16;2.10;;;1.92;;
32912;SDS011;19266;45.580;-122.680;2022-07-23T05:19:45;6.22;;;2.00;;
32912;SDS011;19266;45.580;-122.680;2022-07-23T05:22:14;3.30;;;1.87;;
32912;SDS011;19266;45.580;-122.680;2022-07-23T05:24:44;12.90;;;2.60;;
32912;SDS011;19266;45.580;-122.680;2022-07-23T05:27:13;7.75;;;1.90;;
32912;SDS011;19266;45.580;-122.680;2022-07-23T05:29:42;2.55;;;1.95;;
32912;SDS011;19266;45.580;-122.680;2022-07-23T05:32:11;4.37;;;1.90;;
32912;SDS011;19266;45.580;-122.680;2022-07-23T05:34:40;9.05;;;1.80;;
32912;SDS011;19266;45.580;-122.680;2022-07-23T05:37:09;21.55;;;2.95;;
32912;SDS011;19266;45.580;-122.680;2022-07-23T05:39:38;3.52;;;1.70;;
32912;SDS011;19266;45.580;-122.680;2022-07-23T05:42:07;4.37;;;1.92;;
32912;SDS011;19266;45.580;-122.680;2022-07-23T05:44:36;3.00;;;2.10;;
32912;SDS011;19266;45.580;-122.680;2022-07-23T05:47:06;2.40;;;1.95;;
32912;SDS011;19266;45.580;-122.680;2022-07-23T05:49:35;2.25;;;1.77;;
32912;SDS011;19266;45.580;-122.680;2022-07-23T05:52:05;3.00;;;1.85;;
32912;SDS011;19266;45.580;-122.680;2022-07-23T05:54:35;2.25;;;1.80;;
32912;SDS011;19266;45.580;-122.680;2022-07-23T05:57:04;37.93;;;3.50;;
32912;SDS011;19266;45.580;-122.680;2022-07-23T05:59:33;2.05;;;1.80;;
32912;SDS011;19266;45.580;-122.680;2022-07-23T06:02:02;3.92;;;1.98;;
32912;SDS011;19266;45.580;-122.680;2022-07-23T06:04:31;1.70;;;1.55;;
32912;SDS011;19266;45.580;-122.680;2022-07-23T06:07:00;3.37;;;1.87;;
32912;SDS011;19266;45.580;-122.680;2022-07-23T06:09:29;2.85;;;1.75;;
32912;SDS011;19266;45.580;-122.680;2022-07-23T06:11:59;2.52;;;1.75;;
32912;SDS011;19266;45.580;-122.680;2022-07-23T06:14:28;2.02;;;1.85;;
32912;SDS011;19266;45.580;-122.680;2022-07-23T06:16:57;1.98;;;1.80;;
32912;SDS011;19266;45.580;-122.680;2022-07-23T06:19:27;2.80;;;1.75;;
32912;SDS011;19266;45.580;-122.680;2022-07-23T06:21:56;2.20;;;2.00;;
32912;SDS011;19266;45.580;-122.680;2022-07-23T06:24:25;3.92;;;2.05;;
32912;SDS011;19266;45.580;-122.680;2022-07-23T06:26:54;3.08;;;2.10;;
32912;SDS011;19266;45.580;-122.680;2022-07-23T06:29:23;2.52;;;1.90;;
32912;SDS011;19266;45.580;-122.680;2022-07-23T06:31:52;2.47;;;2.27;;
32912;SDS011;19266;45.580;-122.680;2022-07-23T06:34:21;2.98;;;1.85;;
32912;SDS011;19266;45.580;-122.680;2022-07-23T06:36:51;6.20;;;3.58;;
32912;SDS011;19266;45.580;-122.680;2022-07-23T06:39:20;5.87;;;3.80;;
32912;SDS011;19266;45.580;-122.680;2022-07-23T06:41:49;4.85;;;3.42;;
32912;SDS011;19266;45.580;-122.680;2022-07-23T06:44:18;10.32;;;3.92;;
32912;SDS011;19266;45.580;-122.680;2022-07-23T06:46:47;3.10;;;2.08;;
32912;SDS011;19266;45.580;-122.680;2022-07-23T06:49:16;6.90;;;2.83;;
32912;SDS011;19266;45.580;-122.680;2022-07-23T06:51:46;3.45;;;2.60;;
32912;SDS011;19266;45.580;-122.680;2022-07-23T06:54:15;5.70;;;2.42;;
32912;SDS011;19266;45.580;-122.680;2022-07-23T06:56:44;3.87;;;2.40;;
32912;SDS011;19266;45.580;-122.680;2022-07-23T06:59:13;7.40;;;3.75;;
32912;SDS011;19266;45.580;-122.680;2022-07-23T07:01:42;3.37;;;2.33;;
32912;SDS011;19266;45.580;-122.680;2022-07-23T07:04:11;2.55;;;2.00;;
32912;SDS011;19266;45.580;-122.680;2022-07-23T07:06:40;1.90;;;1.70;;
32912;SDS011;19266;45.580;-122.680;2022-07-23T07:09:09;2.47;;;2.10;;
32912;SDS011;19266;45.580;-122.680;2022-07-23T07:11:39;3.00;;;1.80;;
32912;SDS011;19266;45.580;-122.680;2022-07-23T07:14:08;2.50;;;1.70;;
32912;SDS011;19266;45.580;-122.680;2022-07-23T07:16:37;1.87;;;1.77;;
32912;SDS011;19266;45.580;-122.680;2022-07-23T07:19:06;3.22;;;1.60;;
32912;SDS011;19266;45.580;-122.680;2022-07-23T07:21:35;3.15;;;1.87;;
32912;SDS011;19266;45.580;-122.680;2022-07-23T07:24:04;3.08;;;1.50;;
32912;SDS011;19266;45.580;-122.680;2022-07-23T07:26:34;2.05;;;1.82;;
32912;SDS011;19266;45.580;-122.680;2022-07-23T07:29:03;4.35;;;2.30;;
32912;SDS011;19266;45.580;-122.680;2022-07-23T07:31:32;5.70;;;2.00;;
32912;SDS011;19266;45.580;-122.680;2022-07-23T07:34:01;2.52;;;2.00;;
32912;SDS011;19266;45.580;-122.680;2022-07-23T07:36:31;4.53;;;2.37;;
32912;SDS011;19266;45.580;-122.680;2022-07-23T07:39:00;2.67;;;2.10;;
32912;SDS011;19266;45.580;-122.680;2022-07-23T07:41:29;3.15;;;2.00;;
32912;SDS011;19266;45.580;-122.680;2022-07-23T07:43:59;2.77;;;1.90;;
32912;SDS011;19266;45.580;-122.680;2022-07-23T07:46:28;3.50;;;1.87;;
32912;SDS011;19266;45.580;-122.680;2022-07-23T07:48:58;3.45;;;1.87;;
32912;SDS011;19266;45.580;-122.680;2022-07-23T07:51:27;2.35;;;1.95;;
32912;SDS011;19266;45.580;-122.680;2022-07-23T07:53:56;4.47;;;2.65;;
32912;SDS011;19266;45.580;-122.680;2022-07-23T07:56:26;4.08;;;2.52;;
32912;SDS011;19266;45.580;-122.680;2022-07-23T07:58:55;6.83;;;2.90;;
32912;SDS011;19266;45.580;-122.680;2022-07-23T08:01:24;6.03;;;2.60;;
32912;SDS011;19266;45.580;-122.680;2022-07-23T08:03:53;3.37;;;2.30;;
32912;SDS011;19266;45.580;-122.680;2022-07-23T08:06:22;4.35;;;2.60;;
32912;SDS011;19266;45.580;-122.680;2022-07-23T08:08:51;3.52;;;2.60;;
32912;SDS011;19266;45.580;-122.680;2022-07-23T08:11:20;7.50;;;2.58;;
32912;SDS011;19266;45.580;-122.680;2022-07-23T08:13:49;2.65;;;1.80;;
32912;SDS011;19266;45.580;-122.680;2022-07-23T08:16:18;2.20;;;1.70;;
32912;SDS011;19266;45.580;-122.680;2022-07-23T08:18:48;2.47;;;1.62;;
32912;SDS011;19266;45.580;-122.680;2022-07-23T08:21:17;2.95;;;1.90;;
32912;SDS011;19266;45.580;-122.680;2022-07-23T08:23:46;3.47;;;1.90;;
32912;SDS011;19266;45.580;-122.680;2022-07-23T08:26:15;1.92;;;1.72;;
32912;SDS011;19266;45.580;-122.680;2022-07-23T08:28:44;3.05;;;1.98;;
32912;SDS011;19266;45.580;-122.680;2022-07-23T08:31:13;2.72;;;1.50;;
32912;SDS011;19266;45.580;-122.680;2022-07-23T08:33:44;63.10;;;4.60;;
32912;SDS011;19266;45.580;-122.680;2022-07-23T08:36:13;14.87;;;2.30;;
32912;SDS011;19266;45.580;-122.680;2022-07-23T08:38:42;3.98;;;1.90;;
32912;SDS011;19266;45.580;-122.680;2022-07-23T08:41:11;4.28;;;1.82;;
32912;SDS011;19266;45.580;-122.680;2022-07-23T08:43:40;1.77;;;1.67;;
32912;SDS011;19266;45.580;-122.680;2022-07-23T08:46:10;4.17;;;1.75;;
32912;SDS011;19266;45.580;-122.680;2022-07-23T08:48:40;2.47;;;1.87;;
32912;SDS011;19266;45.580;-122.680;2022-07-23T08:51:10;4.10;;;1.77;;
32912;SDS011;19266;45.580;-122.680;2022-07-23T08:53:39;4.40;;;1.95;;
32912;SDS011;19266;45.580;-122.680;2022-07-23T08:56:09;2.72;;;1.70;;
32912;SDS011;19266;45.580;-122.680;2022-07-23T08:58:38;2.58;;;1.87;;
32912;SDS011;19266;45.580;-122.680;2022-07-23T09:01:07;1.75;;;1.40;;
32912;SDS011;19266;45.580;-122.680;2022-07-23T09:03:36;1.50;;;1.40;;
32912;SDS011;19266;45.580;-122.680;2022-07-23T09:06:07;1.60;;;1.50;;
32912;SDS011;19266;45.580;-122.680;2022-07-23T09:08:42;1.47;;;1.30;;
32912;SDS011;19266;45.580;-122.680;2022-07-23T09:11:13;2.65;;;1.50;;
32912;SDS011;19266;45.580;-122.680;2022-07-23T09:13:48;2.67;;;1.60;;
32912;SDS011;19266;45.580;-122.680;2022-07-23T09:16:19;1.57;;;1.40;;
32912;SDS011;19266;45.580;-122.680;2022-07-23T09:18:49;2.35;;;1.80;;
32912;SDS011;19266;45.580;-122.680;2022-07-23T09:21:19;1.60;;;1.50;;
32912;SDS011;19266;45.580;-122.680;2022-07-23T09:23:49;1.70;;;1.60;;
32912;SDS011;19266;45.580;-122.680;2022-07-23T09:28:58;3.58;;;1.72;;
32912;SDS011;19266;45.580;-122.680;2022-07-23T09:31:30;2.05;;;1.70;;
32912;SDS011;19266;45.580;-122.680;2022-07-23T09:34:42;1.90;;;1.70;;
32912;SDS011;19266;45.580;-122.680;2022-07-23T09:36:27;2.10;;;1.90;;
32912;SDS011;19266;45.580;-122.680;2022-07-23T09:38:56;1.87;;;1.77;;
32912;SDS011;19266;45.580;-122.680;2022-07-23T09:41:26;2.10;;;1.80;;
32912;SDS011;19266;45.580;-122.680;2022-07-23T09:43:56;11.10;;;2.47;;
32912;SDS011;19266;45.580;-122.680;2022-07-23T09:46:25;4.78;;;1.80;;
32912;SDS011;19266;45.580;-122.680;2022-07-23T09:48:55;3.77;;;1.90;;
32912;SDS011;19266;45.580;-122.680;2022-07-23T09:51:24;3.20;;;1.90;;
32912;SDS011;19266;45.580;-122.680;2022-07-23T09:54:05;2.27;;;1.62;;
32912;SDS011;19266;45.580;-122.680;2022-07-23T09:56:34;2.85;;;1.67;;
32912;SDS011;19266;45.580;-122.680;2022-07-23T09:59:05;2.42;;;1.90;;
32912;SDS011;19266;45.580;-122.680;2022-07-23T10:01:38;2.62;;;1.85;;
32912;SDS011;19266;45.580;-122.680;2022-07-23T10:04:07;1.87;;;1.77;;
32912;SDS011;19266;45.580;-122.680;2022-07-23T10:06:37;2.15;;;1.70;;
32912;SDS011;19266;45.580;-122.680;2022-07-23T10:09:07;1.92;;;1.80;;
32912;SDS011;19266;45.580;-122.680;2022-07-23T10:11:37;2.02;;;1.70;;
32912;SDS011;19266;45.580;-122.680;2022-07-23T10:14:06;4.58;;;1.98;;
32912;SDS011;19266;45.580;-122.680;2022-07-23T10:16:36;2.52;;;1.92;;
32912;SDS011;19266;45.580;-122.680;2022-07-23T10:19:06;4.60;;;1.80;;
32912;SDS011;19266;45.580;-122.680;2022-07-23T10:21:48;1.62;;;1.52;;
32912;SDS011;19266;45.580;-122.680;2022-07-23T10:24:23;2.42;;;1.67;;
32912;SDS011;19266;45.580;-122.680;2022-07-23T10:29:41;2.17;;;1.85;;
32912;SDS011;19266;45.580;-122.680;2022-07-23T10:34:55;1.80;;;1.70;;
32912;SDS011;19266;45.580;-122.680;2022-07-23T10:37:26;3.17;;;1.90;;
32912;SDS011;19266;45.580;-122.680;2022-07-23T10:40:09;5.33;;;1.85;;
32912;SDS011;19266;45.580;-122.680;2022-07-23T10:42:38;3.15;;;1.70;;
32912;SDS011;19266;45.580;-122.680;2022-07-23T10:47:53;1.60;;;1.50;;
32912;SDS011;19266;45.580;-122.680;2022-07-23T10:50:26;1.55;;;1.45;;
32912;SDS011;19266;45.580;-122.680;2022-07-23T10:58:06;3.33;;;1.52;;
32912;SDS011;19266;45.580;-122.680;2022-07-23T11:00:36;3.27;;;1.65;;
32912;SDS011;19266;45.580;-122.680;2022-07-23T11:03:27;1.77;;;1.30;;
32912;SDS011;19266;45.580;-122.680;2022-07-23T11:05:40;3.02;;;1.20;;
32912;SDS011;19266;45.580;-122.680;2022-07-23T11:08:11;4.30;;;1.40;;
32912;SDS011;19266;45.580;-122.680;2022-07-23T11:10:45;1.35;;;1.25;;
32912;SDS011;19266;45.580;-122.680;2022-07-23T11:13:30;1.77;;;1.20;;
32912;SDS011;19266;45.580;-122.680;2022-07-23T11:16:03;1.50;;;1.40;;
32912;SDS011;19266;45.580;-122.680;2022-07-23T11:23:59;2.05;;;1.30;;
32912;SDS011;19266;45.580;-122.680;2022-07-23T11:31:54;4.97;;;1.82;;
32912;SDS011;19266;45.580;-122.680;2022-07-23T11:34:39;1.70;;;1.60;;
32912;SDS011;19266;45.580;-122.680;2022-07-23T11:37:10;1.57;;;1.47;;
32912;SDS011;19266;45.580;-122.680;2022-07-23T11:39:39;1.60;;;1.50;;
32912;SDS011;19266;45.580;-122.680;2022-07-23T11:42:08;2.08;;;1.42;;
32912;SDS011;19266;45.580;-122.680;2022-07-23T11:44:37;3.20;;;1.67;;
32912;SDS011;19266;45.580;-122.680;2022-07-23T11:47:08;2.15;;;1.62;;
32912;SDS011;19266;45.580;-122.680;2022-07-23T11:49:37;2.10;;;1.67;;
32912;SDS011;19266;45.580;-122.680;2022-07-23T11:52:12;2.08;;;1.60;;
32912;SDS011;19266;45.580;-122.680;2022-07-23T11:54:54;1.80;;;1.60;;
32912;SDS011;19266;45.580;-122.680;2022-07-23T11:57:24;2.62;;;1.60;;
32912;SDS011;19266;45.580;-122.680;2022-07-23T12:00:01;2.20;;;1.90;;
32912;SDS011;19266;45.580;-122.680;2022-07-23T12:02:24;2.15;;;1.50;;
32912;SDS011;19266;45.580;-122.680;2022-07-23T12:04:53;2.17;;;1.80;;
32912;SDS011;19266;45.580;-122.680;2022-07-23T12:07:32;2.25;;;1.75;;
32912;SDS011;19266;45.580;-122.680;2022-07-23T12:10:09;1.70;;;1.60;;
32912;SDS011;19266;45.580;-122.680;2022-07-23T12:12:36;2.90;;;1.77;;
32912;SDS011;19266;45.580;-122.680;2022-07-23T12:15:05;2.72;;;1.92;;
32912;SDS011;19266;45.580;-122.680;2022-07-23T12:17:35;2.05;;;1.85;;
32912;SDS011;19266;45.580;-122.680;2022-07-23T12:20:05;2.22;;;1.95;;
32912;SDS011;19266;45.580;-122.680;2022-07-23T12:22:41;3.60;;;1.90;;
32912;SDS011;19266;45.580;-122.680;2022-07-23T12:25:12;1.85;;;1.75;;
32912;SDS011;19266;45.580;-122.680;2022-07-23T12:27:41;1.75;;;1.62;;
32912;SDS011;19266;45.580;-122.680;2022-07-23T12:32:48;1.70;;;1.57;;
32912;SDS011;19266;45.580;-122.680;2022-07-23T12:35:17;1.60;;;1.50;;
32912;SDS011;19266;45.580;-122.680;2022-07-23T12:37:48;2.08;;;1.52;;
32912;SDS011;19266;45.580;-122.680;2022-07-23T12:40:27;1.82;;;1.67;;
32912;SDS011;19266;45.580;-122.680;2022-07-23T12:43:00;3.33;;;1.75;;
32912;SDS011;19266;45.580;-122.680;2022-07-23T12:45:27;2.35;;;1.90;;
32912;SDS011;19266;45.580;-122.680;2022-07-23T12:48:00;2.35;;;1.70;;
32912;SDS011;19266;45.580;-122.680;2022-07-23T12:50:31;2.65;;;1.70;;
32912;SDS011;19266;45.580;-122.680;2022-07-23T12:53:11;3.40;;;1.70;;
32912;SDS011;19266;45.580;-122.680;2022-07-23T12:55:40;1.70;;;1.60;;
32912;SDS011;19266;45.580;-122.680;2022-07-23T12:58:11;1.98;;;1.80;;
32912;SDS011;19266;45.580;-122.680;2022-07-23T13:01:41;2.22;;;1.30;;
32912;SDS011;19266;45.580;-122.680;2022-07-23T13:03:23;2.55;;;1.72;;
32912;SDS011;19266;45.580;-122.680;2022-07-23T13:05:53;2.00;;;1.60;;
32912;SDS011;19266;45.580;-122.680;2022-07-23T13:08:22;2.70;;;1.62;;
32912;SDS011;19266;45.580;-122.680;2022-07-23T13:10:51;2.87;;;1.70;;
32912;SDS011;19266;45.580;-122.680;2022-07-23T13:13:24;3.40;;;1.52;;
32912;SDS011;19266;45.580;-122.680;2022-07-23T13:15:53;2.70;;;1.50;;
32912;SDS011;19266;45.580;-122.680;2022-07-23T13:18:22;2.35;;;1.67;;
32912;SDS011;19266;45.580;-122.680;2022-07-23T13:20:51;3.08;;;1.70;;
32912;SDS011;19266;45.580;-122.680;2022-07-23T13:23:21;1.67;;;1.50;;
32912;SDS011;19266;45.580;-122.680;2022-07-23T13:25:50;2.47;;;1.80;;
32912;SDS011;19266;45.580;-122.680;2022-07-23T13:28:20;2.25;;;1.60;;
32912;SDS011;19266;45.580;-122.680;2022-07-23T13:30:49;3.98;;;2.00;;
32912;SDS011;19266;45.580;-122.680;2022-07-23T13:33:19;2.42;;;1.80;;
32912;SDS011;19266;45.580;-122.680;2022-07-23T13:35:49;3.67;;;2.00;;
32912;SDS011;19266;45.580;-122.680;2022-07-23T13:38:18;2.27;;;1.87;;
32912;SDS011;19266;45.580;-122.680;2022-07-23T13:40:49;3.00;;;1.92;;
32912;SDS011;19266;45.580;-122.680;2022-07-23T13:43:19;3.37;;;2.00;;
32912;SDS011;19266;45.580;-122.680;2022-07-23T13:45:48;3.10;;;1.98;;
32912;SDS011;19266;45.580;-122.680;2022-07-23T13:48:18;3.27;;;2.15;;
32912;SDS011;19266;45.580;-122.680;2022-07-23T13:50:47;2.72;;;2.08;;
32912;SDS011;19266;45.580;-122.680;2022-07-23T13:53:17;2.10;;;1.90;;
32912;SDS011;19266;45.580;-122.680;2022-07-23T13:55:47;2.55;;;2.30;;
32912;SDS011;19266;45.580;-122.680;2022-07-23T13:58:16;2.45;;;2.25;;
32912;SDS011;19266;45.580;-122.680;2022-07-23T14:00:47;3.08;;;2.42;;
32912;SDS011;19266;45.580;-122.680;2022-07-23T14:03:15;3.80;;;2.70;;
32912;SDS011;19266;45.580;-122.680;2022-07-23T14:05:45;3.40;;;3.10;;
32912;SDS011;19266;45.580;-122.680;2022-07-23T14:08:14;4.55;;;3.10;;
32912;SDS011;19266;45.580;-122.680;2022-07-23T14:10:43;3.17;;;2.85;;
32912;SDS011;19266;45.580;-122.680;2022-07-23T14:13:13;3.77;;;3.08;;
32912;SDS011;19266;45.580;-122.680;2022-07-23T14:15:42;4.05;;;3.22;;
32912;SDS011;19266;45.580;-122.680;2022-07-23T14:18:11;4.33;;;3.22;;
32912;SDS011;19266;45.580;-122.680;2022-07-23T14:20:40;4.45;;;2.72;;
32912;SDS011;19266;45.580;-122.680;2022-07-23T14:23:09;3.52;;;2.67;;
32912;SDS011;19266;45.580;-122.680;2022-07-23T14:25:38;3.52;;;3.00;;
32912;SDS011;19266;45.580;-122.680;2022-07-23T14:28:07;3.50;;;3.20;;
32912;SDS011;19266;45.580;-122.680;2022-07-23T14:30:36;4.72;;;3.15;;
32912;SDS011;19266;45.580;-122.680;2022-07-23T14:33:06;2.92;;;2.72;;
32912;SDS011;19266;45.580;-122.680;2022-07-23T14:35:35;3.77;;;2.75;;
32912;SDS011;19266;45.580;-122.680;2022-07-23T14:38:04;3.33;;;2.83;;
32912;SDS011;19266;45.580;-122.680;2022-07-23T14:40:33;4.45;;;2.70;;
32912;SDS011;19266;45.580;-122.680;2022-07-23T14:43:02;3.75;;;2.40;;
32912;SDS011;19266;45.580;-122.680;2022-07-23T14:45:33;4.95;;;2.40;;
32912;SDS011;19266;45.580;-122.680;2022-07-23T14:48:02;4.00;;;2.50;;
32912;SDS011;19266;45.580;-122.680;2022-07-23T14:50:31;2.42;;;2.20;;
32912;SDS011;19266;45.580;-122.680;2022-07-23T14:53:00;3.87;;;2.20;;